Report METAR

 

LIML - Milano/Linate, Italy
Distance from station: NO 27km
Dati ricevuti: 18/01/2019 04:20
Mist, Nuvoloso
Mist, Nuvoloso
 Vento da O
Vento: O 17 km/h
Temperatura: 5°C
Temperatura Vento: 2°C
P.to Rugiada: 4°C
Umidità: 93%
Barometro: 1009 hPa
Summary: Mist
Nuvole: Molto nuvoloso
Visibility: 2 km
Cloud details: Molto nuvoloso 91 m
2019/01/18 03:20 LIML 180320Z AUTO 27009KT 1900 BR BKN003/// 05/04 Q1009
LIME - Bergamo/Orio Ser, Italy
Distance from station: NNE 43km
Dati ricevuti: 18/01/2019 04:20
Nebbia, Nuvoloso
Nebbia, Nuvoloso
 Vento da O
Vento: O 13 km/h
Temperatura: 4°C
Temperatura Vento: 1°C
P.to Rugiada: 4°C
Umidità: 100%
Barometro: 1008 hPa
Summary: Nebbia
Nuvole: Molto nuvoloso
Visibility: 1 km
Cloud details: Molto nuvoloso 91 m
2019/01/18 03:20 LIME 180320Z 26007KT 0600 R28/P1500N FG BKN003 04/04 Q1008 NOSIG
 
LIMS - Piacenza, it-Afb, Italy
Distance from station: SSE 45km
Dati ricevuti: 17/01/2019 18:55
DATI Obsoleti
Pioviggine, Nebbia, Parz. nuvoloso
Pioviggine, Nebbia, Parz. nuvoloso
 Vento da NE
Vento: NE 4 km/h
Temperatura: 5°C
P.to Rugiada: 5°C
Umidità: 100%
Barometro: 1010 hPa
Summary: Pioviggine, Nebbia
Nuvole: Parz. nuvoloso
Visibility: 1 km
Cloud details: Molto nuvoloso 91 m
Parz. nuvoloso 122 m
2019/01/17 17:55 LIMS 171755Z 05002KT 0700 R30/1000 R12/1100 -RA FG BKN003 SCT004 05/05 Q1010
LIPO - Brescia/Montichi, Italy
Distance from station: ENE 65km
Dati ricevuti: 18/01/2019 03:50
Mist, Nuvoloso
Mist, Nuvoloso
 Vento da SO
Vento: SO 11 km/h
Temperatura: 5°C
Temperatura Vento: 2°C
P.to Rugiada: 5°C
Umidità: 100%
Barometro: 1009 hPa
Summary: Mist
Nuvole: Molto nuvoloso
Visibility: 2 km
Cloud details: Molto nuvoloso 610 m
2019/01/18 02:50 LIPO 180250Z 22006KT 2000 BR BKN020 05/05 Q1009